Time;durP1;ratioP1;P1;durP2;ratioP2;P2;SDS_P1;SDS_P2;PMS_P1;PMS_P2;Temp;Humidity;BMP_temperature;BMP_pressure;BME280_temperature;BME280_humidity;BME280_pressure;Samples;Min_cycle;Max_cycle;Signal;HPM_P1;HPM_P2
2021/10/23 00:01:58;;;;;;;3.50;0.80;;;;;;;5.56;94.70;100443.38;5287384;56;1135018;-73
2021/10/23 00:07:04;;;;;;;4.07;1.07;;;;;;;5.52;94.82;100462.00;5287964;55;1134866;-75
2021/10/23 00:12:10;;;;;;;3.33;0.97;;;;;;;5.45;94.95;100448.88;5287376;56;1135144;-75
2021/10/23 00:17:16;;;;;;;2.47;0.67;;;;;;;5.48;94.94;100478.41;5286990;56;1134891;-74
2021/10/23 00:22:22;;;;;;;3.13;1.00;;;;;;;5.43;94.93;100475.19;5287637;55;1134852;-75
2021/10/23 00:27:29;;;;;;;3.80;0.90;;;;;;;5.46;94.78;100481.58;5287489;55;1134891;-73
2021/10/23 00:32:36;;;;;;;3.23;1.23;;;;;;;5.44;94.31;100482.13;5289026;55;1134847;-75
2021/10/23 00:37:42;;;;;;;6.90;0.80;;;;;;;5.38;94.66;100483.77;5290262;55;1132752;-72
2021/10/23 00:42:48;;;;;;;5.80;0.70;;;;;;;5.33;94.56;100478.42;5288302;55;1132766;-72
2021/10/23 00:47:54;;;;;;;3.60;0.70;;;;;;;5.26;95.23;100473.98;5294455;55;1132850;-75
2021/10/23 00:53:00;;;;;;;5.80;1.30;;;;;;;5.21;95.28;100468.14;5262619;55;1132878;-74
2021/10/23 00:58:05;;;;;;;4.33;0.80;;;;;;;5.19;94.75;100470.03;5165896;56;1132858;-72
2021/10/23 01:03:11;;;;;;;4.90;1.00;;;;;;;5.15;95.28;100479.84;5156127;56;1132781;-75
2021/10/23 01:08:17;;;;;;;8.13;1.47;;;;;;;5.13;95.07;100484.31;5156253;56;1132776;-73
2021/10/23 01:13:23;;;;;;;3.20;1.17;;;;;;;5.11;95.36;100485.33;5156061;56;1133039;-75
2021/10/23 01:18:28;;;;;;;3.40;0.97;;;;;;;5.09;95.69;100497.66;5156180;56;1133033;-72
2021/10/23 01:23:34;;;;;;;6.08;0.95;;;;;;;5.07;95.82;100487.73;5155957;56;1133037;-75
2021/10/23 01:28:39;;;;;;;4.93;1.70;;;;;;;5.05;95.83;100489.58;5155919;56;1132809;-75
2021/10/23 01:33:45;;;;;;;2.37;1.10;;;;;;;5.05;95.90;100497.45;5155973;56;1133009;-72
2021/10/23 01:38:51;;;;;;;5.00;1.03;;;;;;;5.04;95.86;100492.67;5156118;56;1132643;-73
2021/10/23 01:43:57;;;;;;;3.03;0.60;;;;;;;5.04;95.89;100507.08;5156391;56;1132757;-75
2021/10/23 01:49:05;;;;;;;7.37;1.33;;;;;;;5.04;96.06;100504.95;5156087;56;1132923;-73
2021/10/23 01:54:12;;;;;;;3.43;1.30;;;;;;;5.05;96.18;100501.37;5213133;56;1133019;-72
2021/10/23 01:59:18;;;;;;;7.30;0.93;;;;;;;5.08;96.33;100507.77;5305436;55;1130819;-75
2021/10/23 02:04:24;;;;;;;8.43;1.17;;;;;;;5.14;96.01;100502.20;5310259;55;1130866;-72
2021/10/23 02:09:29;;;;;;;9.13;1.17;;;;;;;5.18;96.06;100512.44;5330830;55;21222;-75
2021/10/23 02:14:35;;;;;;;6.77;1.50;;;;;;;5.22;95.92;100515.25;5310451;55;1130690;-75
2021/10/23 02:19:41;;;;;;;6.00;1.37;;;;;;;5.27;95.78;100516.31;5310366;55;1134773;-75
2021/10/23 02:24:47;;;;;;;15.17;3.87;;;;;;;5.32;95.64;100523.94;5310298;55;1135081;-76
2021/10/23 02:29:52;;;;;;;5.85;0.90;;;;;;;5.34;95.54;100529.48;5310586;55;1136892;-72
2021/10/23 02:34:58;;;;;;;7.73;1.00;;;;;;;5.37;95.39;100539.77;5310762;55;1134902;-76
2021/10/23 02:40:06;;;;;;;1.43;0.90;;;;;;;5.39;95.34;100543.16;5310334;55;1135011;-74
2021/10/23 02:45:12;;;;;;;3.83;1.20;;;;;;;5.40;95.34;100550.56;5310289;55;1134986;-76
2021/10/23 02:50:18;;;;;;;6.20;1.30;;;;;;;5.41;95.26;100547.02;5309534;55;1134884;-72
2021/10/23 02:55:24;;;;;;;4.90;1.77;;;;;;;5.43;95.07;100548.63;5221241;56;1135221;-73
2021/10/23 03:00:31;;;;;;;11.33;1.30;;;;;;;5.43;95.10;100565.67;5221635;56;1134961;-73
2021/10/23 03:05:36;;;;;;;10.70;2.37;;;;;;;5.43;95.11;100570.92;5220504;56;1137013;-75
2021/10/23 03:10:43;;;;;;;3.20;1.10;;;;;;;5.46;94.93;100565.51;5220626;56;1136962;-75
2021/10/23 03:15:53;;;;;;;6.37;1.13;;;;;;;5.49;94.91;100573.67;5220804;56;1134324;-74
2021/10/23 03:21:00;;;;;;;5.83;1.23;;;;;;;5.48;95.09;100572.83;5220507;56;1134919;-75
2021/10/23 03:26:06;;;;;;;3.87;1.20;;;;;;;5.46;94.98;100581.25;5220285;56;1134903;-76
2021/10/23 03:31:12;;;;;;;11.03;1.60;;;;;;;5.46;94.98;100581.25;5220470;56;1134858;-76
2021/10/23 03:36:18;;;;;;;6.17;1.40;;;;;;;5.48;95.04;100600.84;5220925;56;1136693;-75
2021/10/23 03:41:23;;;;;;;3.77;1.10;;;;;;;5.46;94.93;100594.83;5221295;56;1134848;-76
2021/10/23 03:46:29;;;;;;;7.57;2.40;;;;;;;5.48;94.76;100608.24;5221177;56;1136912;-77
2021/10/23 03:51:35;;;;;;;3.07;0.93;;;;;;;5.51;95.25;100616.38;5245053;55;1134802;-77
2021/10/23 03:56:41;;;;;;;12.60;1.30;;;;;;;5.57;95.01;100616.91;5311881;55;1134881;-76
2021/10/23 04:01:48;;;;;;;11.77;1.53;;;;;;;5.60;94.96;100606.25;5312445;55;1136932;-73
2021/10/23 04:06:54;;;;;;;14.03;2.77;;;;;;;5.63;94.72;100617.89;5312288;55;1136790;-73
2021/10/23 04:12:00;;;;;;;6.83;1.73;;;;;;;5.64;94.85;100627.92;5312484;55;1136862;-72
2021/10/23 04:17:06;;;;;;;9.37;1.50;;;;;;;5.69;94.81;100641.61;5312563;55;1134827;-77
2021/10/23 04:22:12;;;;;;;8.33;1.60;;;;;;;5.75;94.64;100638.66;5312496;55;1134874;-75
2021/10/23 04:27:19;;;;;;;10.07;1.80;;;;;;;5.78;94.39;100644.20;5312441;55;1135334;-76
2021/10/23 04:32:25;;;;;;;8.53;1.80;;;;;;;5.80;94.22;100653.69;5312375;55;1136742;-76
2021/10/23 04:37:31;;;;;;;6.90;1.30;;;;;;;5.80;94.09;100645.81;5312267;55;1134791;-75
2021/10/23 04:42:38;;;;;;;12.70;1.80;;;;;;;5.83;94.04;100653.95;5312449;55;1134993;-74
2021/10/23 04:47:44;;;;;;;6.13;1.93;;;;;;;5.86;93.93;100651.17;5312229;55;1136994;-75
2021/10/23 04:52:49;;;;;;;4.03;1.57;;;;;;;5.86;93.62;100662.52;5266572;55;1134822;-76
2021/10/23 04:57:57;;;;;;;4.90;1.50;;;;;;;5.87;93.60;100675.17;5223159;56;1134836;-77
2021/10/23 05:03:02;;;;;;;10.30;1.90;;;;;;;5.82;94.05;100689.85;5223223;56;1135070;-76
2021/10/23 05:08:09;;;;;;;17.97;2.73;;;;;;;5.82;94.05;100689.85;5231997;56;1136956;-74
2021/10/23 05:13:14;;;;;;;12.63;2.57;;;;;;;5.83;93.64;100690.70;5232264;56;1136946;-76
2021/10/23 05:18:20;;;;;;;14.67;3.57;;;;;;;5.82;93.57;100698.20;5232095;56;1136968;-74
2021/10/23 05:23:26;;;;;;;6.33;1.43;;;;;;;5.81;93.76;100707.00;5224916;56;1136970;-78
2021/10/23 05:28:32;;;;;;;16.17;2.50;;;;;;;5.80;93.67;100722.39;5221350;56;1133016;-74
2021/10/23 05:33:38;;;;;;;5.83;2.07;;;;;;;5.83;93.83;100728.30;5221938;56;1135099;-75
2021/10/23 05:38:44;;;;;;;9.27;6.43;;;;;;;5.84;93.69;100729.14;5223055;56;1132836;-75
2021/10/23 05:43:50;;;;;;;60.57;25.00;;;;;;;5.82;93.60;100731.00;5243283;55;1132752;-75
2021/10/23 05:48:56;;;;;;;36.10;19.27;;;;;;;5.82;93.53;100734.47;5280240;55;1136929;-76
2021/10/23 05:54:02;;;;;;;31.03;19.00;;;;;;;5.83;93.70;100741.88;5242007;55;1136946;-75
2021/10/23 05:59:12;;;;;;;44.17;19.07;;;;;;;5.82;93.78;100746.28;5278431;55;1136958;-73
2021/10/23 06:04:18;;;;;;;33.07;11.43;;;;;;;5.85;93.61;100743.97;5138037;56;1136974;-73
2021/10/23 06:09:24;;;;;;;39.20;19.63;;;;;;;5.85;93.62;100757.09;5133436;57;1137286;-76
2021/10/23 06:14:30;;;;;;;32.30;12.97;;;;;;;5.84;93.53;100765.89;5133510;57;1136973;-75
2021/10/23 06:19:38;;;;;;;16.73;5.87;;;;;;;5.82;93.57;100779.09;5133354;56;1136922;-72
2021/10/23 06:24:44;;;;;;;9.70;3.40;;;;;;;5.85;93.54;100780.24;5133428;56;1134905;-73
2021/10/23 06:29:50;;;;;;;16.43;4.83;;;;;;;5.86;93.48;100785.87;5153455;56;1132773;-74
2021/10/23 06:34:56;;;;;;;11.40;5.53;;;;;;;5.89;93.36;100790.16;5155722;56;1134928;-75
2021/10/23 06:40:01;;;;;;;10.87;3.20;;;;;;;5.88;93.63;100797.61;5155511;56;1134872;-75
2021/10/23 06:45:10;;;;;;;8.63;2.13;;;;;;;5.88;93.32;100806.37;5145000;56;1134899;-74
2021/10/23 06:50:16;;;;;;;9.23;4.13;;;;;;;5.90;93.41;100825.52;5144357;56;1132943;-77
2021/10/23 06:55:22;;;;;;;9.50;2.27;;;;;;;5.91;93.54;100840.33;5144540;56;1130836;-77
2021/10/23 07:00:28;;;;;;;12.73;2.83;;;;;;;5.93;93.47;100852.07;5181678;56;21174;-76
2021/10/23 07:23:03;;;;;;;14.73;2.47;;;;;;;6.06;93.23;100882.45;5323765;54;46099;-75
2021/10/23 07:28:09;;;;;;;6.63;2.37;;;;;;;6.04;92.54;100892.19;5093065;57;1132702;-75
2021/10/23 07:33:15;;;;;;;10.30;2.20;;;;;;;6.08;92.71;100906.39;5055801;57;1137088;-78
2021/10/23 07:38:21;;;;;;;14.13;5.67;;;;;;;6.14;92.25;100903.42;4998232;57;1138987;-79
2021/10/23 07:43:27;;;;;;;12.87;2.97;;;;;;;6.17;92.20;100911.15;5058793;57;1138850;-80
2021/10/23 07:48:34;;;;;;;8.45;1.85;;;;;;;6.19;91.64;100912.38;4985945;58;1136982;-79
2021/10/23 07:53:40;;;;;;;10.77;3.40;;;;;;;6.23;91.90;100924.42;4883506;59;1137068;-80
2021/10/23 07:58:46;;;;;;;9.53;2.73;;;;;;;6.26;91.91;100936.91;4850415;60;1139008;-78
2021/10/23 08:03:52;;;;;;;9.67;2.27;;;;;;;6.31;91.63;100938.84;4869323;59;1137031;-77
2021/10/23 08:08:58;;;;;;;16.57;2.50;;;;;;;6.35;91.06;100950.03;5053625;58;1136927;-77
2021/10/23 08:14:04;;;;;;;11.60;2.97;;;;;;;6.45;91.32;100963.52;5097994;57;1139024;-77
2021/10/23 08:19:10;;;;;;;9.53;2.90;;;;;;;6.52;90.69;100970.16;5063290;57;1138971;-78
2021/10/23 08:24:16;;;;;;;12.50;2.90;;;;;;;6.62;91.13;100977.45;4995403;57;1136974;-77
2021/10/23 08:29:21;;;;;;;8.03;1.57;;;;;;;6.76;90.44;100991.16;5048217;57;1139044;-77
2021/10/23 08:34:27;;;;;;;4.43;1.47;;;;;;;6.81;90.05;100997.03;5037357;57;1136976;-78
2021/10/23 08:39:33;;;;;;;9.60;1.77;;;;;;;6.85;89.78;101002.98;5004082;58;1137087;-78
2021/10/23 08:44:40;;;;;;;6.80;1.80;;;;;;;6.89;90.28;101011.06;4897581;59;1137203;-77
2021/10/23 08:49:47;;;;;;;7.10;1.50;;;;;;;6.96;89.58;101018.55;4958715;58;1137061;-77
2021/10/23 08:54:54;;;;;;;8.38;2.33;;;;;;;7.02;89.55;101022.17;5180967;56;1137111;-78
2021/10/23 09:00:00;;;;;;;5.00;1.80;;;;;;;7.07;89.52;101032.41;5046454;58;1136976;-77
2021/10/23 09:05:07;;;;;;;9.07;2.60;;;;;;;7.17;88.76;101037.57;5032586;58;1136962;-78
2021/10/23 09:10:16;;;;;;;15.30;3.87;;;;;;;7.24;89.06;101041.55;4956521;58;1137027;-78
2021/10/23 09:15:21;;;;;;;8.30;2.00;;;;;;;7.37;89.31;101052.23;5135756;56;1139030;-77
2021/10/23 09:20:27;;;;;;;8.93;1.70;;;;;;;7.49;88.67;101066.02;5064631;57;1136883;-77
2021/10/23 09:25:37;;;;;;;11.55;3.15;;;;;;;7.59;86.56;101067.68;5053790;57;1136548;-79
2021/10/23 09:30:50;;;;;;;13.47;3.90;;;;;;;7.61;87.34;101070.61;5128492;57;1139017;-77
2021/10/23 09:36:03;;;;;;;11.80;3.60;;;;;;;7.60;86.75;101070.23;5128421;57;1139039;-77
2021/10/23 09:41:16;;;;;;;9.40;1.93;;;;;;;7.66;86.68;101083.02;5128514;57;1139037;-77
2021/10/23 09:46:24;;;;;;;9.37;1.80;;;;;;;7.68;85.97;101088.20;5128404;57;1134773;-78
2021/10/23 09:51:38;;;;;;;9.63;2.20;;;;;;;7.67;86.00;101092.62;5128409;57;1135066;-77
2021/10/23 09:56:47;;;;;;;9.00;2.33;;;;;;;7.73;85.37;101105.92;5128498;57;1134145;-77
2021/10/23 10:01:57;;;;;;;7.47;2.30;;;;;;;7.77;85.88;101110.09;5123637;57;1134852;-76
2021/10/23 10:07:04;;;;;;;2.93;1.33;;;;;;;7.89;86.23;101115.97;5128063;57;1134889;-77
2021/10/23 10:12:10;;;;;;;10.00;2.40;;;;;;;8.02;84.30;101120.06;5118840;57;1134344;-79
2021/10/23 10:17:17;;;;;;;10.35;1.90;;;;;;;8.09;84.10;101121.42;5090235;57;1136964;-78
2021/10/23 10:22:22;;;;;;;11.07;2.13;;;;;;;8.09;83.38;101117.47;5104752;57;1136428;-78
2021/10/23 10:27:33;;;;;;;10.93;2.20;;;;;;;8.08;84.89;101112.67;5044294;57;1136950;-78
2021/10/23 10:32:41;;;;;;;13.33;2.33;;;;;;;8.20;83.31;101123.42;5033696;58;1136256;-78
2021/10/23 10:43:24;;;;;;;11.33;2.27;;;;;;;8.48;83.17;101122.22;5013971;58;1139279;-78
2021/10/23 10:48:37;;;;;;;2.90;1.23;;;;;;;8.56;83.14;101125.23;5016325;57;1138944;-78
2021/10/23 10:53:53;;;;;;;14.70;1.85;;;;;;;8.63;80.56;101131.84;5037111;57;1136983;-78
2021/10/23 11:04:12;;;;;;;13.23;2.67;;;;;;;8.59;82.17;101142.66;5370759;55;46275;-78
2021/10/23 11:09:29;;;;;;;7.77;2.70;;;;;;;8.55;81.40;101147.29;5149145;56;1134650;-77
2021/10/23 11:14:38;;;;;;;8.80;2.10;;;;;;;8.60;81.88;101143.89;5180959;56;1137162;-79
2021/10/23 11:19:53;;;;;;;7.47;1.80;;;;;;;8.69;82.21;101158.34;5144525;56;1136943;-78
2021/10/23 11:25:09;;;;;;;11.50;2.60;;;;;;;8.71;79.85;101155.11;5144210;56;1137020;-77
2021/10/23 11:30:33;;;;;;;16.60;2.53;;;;;;;8.78;80.64;101164.37;5104715;56;1138941;-77
2021/10/23 11:35:52;;;;;;;12.13;2.40;;;;;;;8.81;80.01;101182.65;5079333;57;1138826;-78
2021/10/23 11:41:04;;;;;;;4.03;1.40;;;;;;;8.79;78.93;101176.15;5121876;57;1138972;-78
2021/10/23 11:46:14;;;;;;;7.43;1.87;;;;;;;8.85;79.44;101176.73;5197686;57;1137200;-79
2021/10/23 11:51:20;;;;;;;10.98;2.95;;;;;;;8.93;78.47;101181.06;5197298;57;1137044;-78
2021/10/23 11:56:26;;;;;;;7.17;2.60;;;;;;;9.04;78.74;101191.80;5214756;56;1139049;-77
2021/10/23 12:01:32;;;;;;;12.50;2.70;;;;;;;9.06;78.30;101201.33;5272111;55;1136825;-77
2021/10/23 12:06:42;;;;;;;8.57;2.77;;;;;;;9.10;77.62;101202.85;5307968;55;1139030;-76
2021/10/23 12:12:18;;;;;;;21.43;3.23;;;;;;;9.08;77.63;101208.69;5299063;55;1134838;-77
2021/10/23 12:17:27;;;;;;;18.87;2.30;;;;;;;8.98;77.68;101204.92;5136014;56;1137038;-76
2021/10/23 12:22:40;;;;;;;18.47;2.73;;;;;;;9.00;77.32;101224.15;5120531;57;1136933;-76
2021/10/23 12:27:50;;;;;;;10.08;2.40;;;;;;;8.99;77.86;101226.87;5176092;56;1137025;-76
2021/10/23 12:33:02;;;;;;;14.93;2.87;;;;;;;9.03;77.78;101227.05;5173954;56;1136938;-79
2021/10/23 12:38:10;;;;;;;14.17;2.63;;;;;;;9.07;77.61;101231.21;5131229;56;1136869;-79
2021/10/23 12:43:22;;;;;;;11.10;2.50;;;;;;;9.08;77.47;101240.36;5147672;55;1134866;-79
2021/10/23 12:48:24;;;;;;;14.23;2.77;;;;;;;9.12;76.36;101235.75;5214508;55;1134878;-79
2021/10/23 12:53:30;;;;;;;13.77;3.17;;;;;;;9.11;77.49;101248.56;5217594;56;1138941;-79
2021/10/23 12:58:36;;;;;;;14.07;4.30;;;;;;;9.22;78.24;101252.72;5212835;56;1139108;-79
2021/10/23 13:03:42;;;;;;;13.33;2.30;;;;;;;9.74;78.14;101252.17;5137979;56;1139327;-79
2021/10/23 13:08:47;;;;;;;6.92;1.60;;;;;;;10.05;74.72;101269.59;5119457;57;1138884;-79
2021/10/23 13:13:53;;;;;;;12.47;2.27;;;;;;;10.19;72.95;101273.56;5181951;57;1139032;-79
2021/10/23 13:18:59;;;;;;;14.00;2.20;;;;;;;10.37;73.66;101279.47;5115206;58;1141086;-79
2021/10/23 13:24:06;;;;;;;11.53;2.17;;;;;;;10.37;73.63;101271.06;5114946;57;1141154;-79
2021/10/23 13:29:11;;;;;;;10.83;3.20;;;;;;;10.39;72.33;101273.61;5114277;57;1141245;-79
2021/10/23 13:34:17;;;;;;;13.63;6.37;;;;;;;10.32;73.56;101283.72;5150092;57;1141133;-80
2021/10/23 13:39:23;;;;;;;6.35;2.42;;;;;;;10.43;72.98;101295.77;5110590;57;1141154;-80
2021/10/23 13:44:30;;;;;;;8.77;2.57;;;;;;;10.45;71.45;101305.78;5177509;57;1138346;-79
2021/10/23 13:49:36;;;;;;;9.88;3.00;;;;;;;10.32;72.35;101318.09;5183138;57;1139048;-79
2021/10/23 13:54:42;;;;;;;19.60;3.93;;;;;;;10.17;73.11;101324.31;5154476;57;1138548;-79
2021/10/23 13:59:48;;;;;;;10.33;2.27;;;;;;;10.01;72.72;101327.07;5137885;57;1141345;-79
2021/10/23 14:04:54;;;;;;;1.73;1.13;;;;;;;9.87;72.75;101366.24;5119506;57;1141356;-79
2021/10/23 14:10:00;;;;;;;3.80;1.17;;;;;;;9.43;79.36;101415.59;5104618;57;1136322;-79
2021/10/23 14:15:07;;;;;;;4.83;2.13;;;;;;;8.99;79.24;101393.09;5129252;57;1136859;-77
2021/10/23 14:20:13;;;;;;;4.83;2.17;;;;;;;8.61;79.76;101396.08;5105818;57;1137174;-78
2021/10/23 14:25:19;;;;;;;3.73;2.87;;;;;;;8.46;80.76;101407.47;5110998;57;1136959;-78
2021/10/23 14:30:27;;;;;;;8.73;4.70;;;;;;;8.33;81.84;101413.88;5140700;56;1136890;-78
2021/10/23 14:35:32;;;;;;;9.83;5.50;;;;;;;8.16;82.60;101425.75;5150696;56;1136888;-79
2021/10/23 14:40:38;;;;;;;6.00;2.43;;;;;;;8.02;83.54;101437.03;5172660;56;1136866;-79
2021/10/23 14:45:44;;;;;;;99.57;70.03;;;;;;;7.94;84.85;101432.64;5150747;56;1136807;-79
2021/10/23 14:50:50;;;;;;;43.77;39.27;;;;;;;7.90;85.10;101448.20;5165517;56;1141009;-79
2021/10/23 14:55:56;;;;;;;8.30;7.10;;;;;;;7.87;85.29;101460.67;5166966;56;1141062;-79
2021/10/23 15:01:02;;;;;;;3.10;1.80;;;;;;;7.86;85.62;101469.50;5197224;56;1136951;-79
2021/10/23 15:06:08;;;;;;;8.33;4.50;;;;;;;7.80;85.68;101477.23;5215964;55;1136781;-79
2021/10/23 15:11:16;;;;;;;5.23;2.30;;;;;;;7.74;86.57;101483.69;5211059;56;1136888;-79
2021/10/23 15:16:21;;;;;;;6.27;2.27;;;;;;;7.65;87.29;101486.77;5215631;56;1136926;-78
2021/10/23 15:21:27;;;;;;;10.37;3.67;;;;;;;7.57;87.29;101488.94;5216030;56;1136876;-79
2021/10/23 15:26:33;;;;;;;21.93;5.97;;;;;;;7.48;87.36;101499.08;5216167;56;1139342;-78
2021/10/23 15:31:39;;;;;;;20.57;6.83;;;;;;;7.43;87.58;101510.29;5216555;56;1138934;-78
2021/10/23 15:36:44;;;;;;;21.00;8.90;;;;;;;7.38;87.76;101515.30;5212551;56;1138958;-78
2021/10/23 15:41:53;;;;;;;21.57;8.83;;;;;;;7.29;88.51;101518.85;5203667;56;1139321;-78
2021/10/23 15:47:02;;;;;;;18.87;6.43;;;;;;;7.22;88.90;101526.63;5204290;56;1139362;-79
2021/10/23 15:52:10;;;;;;;16.03;6.40;;;;;;;7.16;89.36;101531.75;5218836;56;1138768;-78
2021/10/23 15:57:13;;;;;;;11.33;4.40;;;;;;;7.11;89.32;101538.99;5206277;56;1139076;-80
2021/10/23 16:02:19;;;;;;;16.23;6.10;;;;;;;7.07;90.20;101549.25;5207579;56;1139046;-79
2021/10/23 16:07:25;;;;;;;14.27;3.27;;;;;;;7.05;90.14;101570.83;5237355;55;1139233;-79
2021/10/23 16:12:31;;;;;;;10.03;4.10;;;;;;;7.08;90.01;101574.64;5234009;55;1136866;-78
2021/10/23 16:17:36;;;;;;;18.37;5.17;;;;;;;7.08;90.01;101579.90;5242352;55;1136920;-78
2021/10/23 16:22:43;;;;;;;15.93;5.57;;;;;;;7.08;90.16;101593.52;5242469;55;1136938;-79
2021/10/23 16:27:49;;;;;;;8.67;4.07;;;;;;;7.09;90.12;101607.91;5242294;55;1136955;-79
2021/10/23 16:32:54;;;;;;;27.27;11.00;;;;;;;7.12;90.45;101613.50;5242218;55;1134907;-78
2021/10/23 16:38:00;;;;;;;15.53;5.80;;;;;;;7.13;90.22;101620.02;5241965;55;1139143;-78
2021/10/23 16:43:07;;;;;;;20.90;6.93;;;;;;;7.17;90.25;101625.53;5242273;55;1136916;-78
2021/10/23 16:48:12;;;;;;;23.47;7.13;;;;;;;7.21;90.23;101634.97;5228037;55;1137128;-79
2021/10/23 16:53:18;;;;;;;29.13;8.73;;;;;;;7.25;90.09;101651.02;5208962;55;1137185;-82
2021/10/23 16:58:24;;;;;;;30.17;10.43;;;;;;;7.31;89.97;101664.37;5232297;55;1136938;-82
2021/10/23 17:03:30;;;;;;;31.17;10.17;;;;;;;7.31;90.07;101669.17;5272713;55;1138893;-80
2021/10/23 17:08:35;;;;;;;32.63;8.77;;;;;;;7.29;89.97;101680.22;5261011;55;1138973;-83
2021/10/23 17:13:41;;;;;;;44.13;13.10;;;;;;;7.30;90.07;101688.97;5201790;56;1136861;-82
2021/10/23 17:18:47;;;;;;;77.13;23.60;;;;;;;7.33;90.10;101706.77;5205217;55;1138993;-81
2021/10/23 17:23:53;;;;;;;61.17;21.00;;;;;;;7.29;90.15;101726.27;5205066;56;1139126;-82
2021/10/23 17:29:00;;;;;;;51.70;29.30;;;;;;;7.46;90.41;101745.72;5220650;56;1138933;-81
2021/10/23 17:34:07;;;;;;;56.00;31.25;;;;;;;7.46;90.41;101745.72;5206223;56;1139005;-82
2021/10/23 17:39:13;;;;;;;24.30;10.43;;;;;;;7.48;90.33;101748.68;5202242;57;1139046;-81
2021/10/23 17:44:20;;;;;;;28.87;10.20;;;;;;;7.48;90.46;101759.67;5209234;56;1136920;-82
2021/10/23 17:49:26;;;;;;;28.03;12.17;;;;;;;7.39;90.35;101769.67;5217326;56;1136962;-81
2021/10/23 17:54:34;;;;;;;14.90;6.37;;;;;;;7.32;90.54;101770.88;5217258;56;1141065;-80
2021/10/23 17:59:39;;;;;;;20.80;8.70;;;;;;;7.29;90.79;101773.64;5217267;56;1139191;-81
2021/10/23 18:04:44;;;;;;;14.50;5.20;;;;;;;7.23;90.81;101766.00;5216933;56;1138998;-81
2021/10/23 18:09:51;;;;;;;17.53;5.30;;;;;;;7.23;91.09;101769.95;5240426;55;1139123;-82
2021/10/23 18:15:00;;;;;;;19.33;5.37;;;;;;;7.22;91.13;101782.70;5231011;55;1139083;-82
2021/10/23 18:20:16;;;;;;;20.13;6.70;;;;;;;7.23;91.11;101783.10;5219224;56;1139088;-77
2021/10/23 18:25:21;;;;;;;17.57;5.05;;;;;;;7.23;91.06;101788.37;5292504;55;1139040;-76
2021/10/23 18:30:27;;;;;;;22.33;6.43;;;;;;;7.20;91.10;101785.00;5307919;55;1139076;-76
2021/10/23 18:35:33;;;;;;;15.60;5.13;;;;;;;7.19;91.08;101794.67;5223722;55;1138939;-76
2021/10/23 18:40:39;;;;;;;14.30;4.53;;;;;;;7.18;91.18;101794.77;5219191;56;1139053;-77
2021/10/23 18:45:47;;;;;;;13.53;5.20;;;;;;;7.14;91.19;101797.98;5194684;55;1139314;-76
2021/10/23 18:50:52;;;;;;;11.37;3.80;;;;;;;7.12;91.31;101809.03;5276699;55;1139039;-76
2021/10/23 18:55:58;;;;;;;11.57;4.43;;;;;;;7.10;91.53;101808.70;5307685;55;1139192;-75
2021/10/23 19:01:04;;;;;;;16.77;4.40;;;;;;;7.05;91.48;101818.09;5307770;55;1139070;-74
2021/10/23 19:06:09;;;;;;;14.87;4.90;;;;;;;6.97;91.40;101821.05;5307593;55;1139164;-74
2021/10/23 19:11:15;;;;;;;10.50;4.40;;;;;;;6.92;91.66;101827.41;5294821;55;1139073;-74
2021/10/23 19:16:21;;;;;;;23.73;6.87;;;;;;;6.85;91.67;101826.83;5215371;56;1139041;-74
2021/10/23 19:21:27;;;;;;;22.23;7.40;;;;;;;6.80;91.87;101823.53;5216522;56;1138983;-74
2021/10/23 19:26:33;;;;;;;27.97;8.90;;;;;;;6.72;91.77;101835.28;5215039;56;1139108;-74
2021/10/23 19:31:39;;;;;;;44.27;11.90;;;;;;;6.58;91.87;101845.87;5216652;56;1139055;-75
2021/10/23 19:36:46;;;;;;;33.18;9.08;;;;;;;6.48;91.73;101847.16;5218897;56;1141338;-76
2021/10/23 19:41:52;;;;;;;11.17;3.93;;;;;;;6.43;91.60;101848.25;5257761;56;1139016;-76
2021/10/23 19:46:57;;;;;;;17.23;4.87;;;;;;;6.37;91.63;101853.76;5238272;56;1139048;-75
2021/10/23 19:52:03;;;;;;;23.43;7.60;;;;;;;6.33;91.33;101856.95;5295444;55;1139241;-75
2021/10/23 19:57:09;;;;;;;19.00;5.90;;;;;;;6.33;91.14;101859.58;5238771;56;1139015;-77
2021/10/23 20:02:15;;;;;;;17.80;6.60;;;;;;;6.27;91.04;101868.55;5210800;56;1139052;-74
2021/10/23 20:07:21;;;;;;;19.50;5.60;;;;;;;6.26;90.81;101880.45;5222589;55;1139085;-76
2021/10/23 20:12:26;;;;;;;13.90;5.93;;;;;;;6.24;90.73;101884.91;5292645;55;1139043;-75
2021/10/23 20:17:32;;;;;;;11.40;3.80;;;;;;;6.20;90.62;101893.81;5321412;55;1136978;-75
2021/10/23 20:22:38;;;;;;;27.87;8.40;;;;;;;6.19;90.42;101899.52;5277169;55;1139219;-77
2021/10/23 20:27:44;;;;;;;19.70;6.13;;;;;;;6.15;90.39;101901.00;5142737;57;1139047;-75
2021/10/23 20:32:49;;;;;;;15.53;5.00;;;;;;;6.07;90.24;101910.48;5142657;57;1139136;-77
2021/10/23 20:37:59;;;;;;;18.03;6.27;;;;;;;6.11;90.31;101910.75;5142841;57;1139224;-75
2021/10/23 20:43:05;;;;;;;16.47;5.73;;;;;;;6.13;90.23;101914.18;5141931;57;1139110;-75
2021/10/23 20:48:11;;;;;;;24.53;5.13;;;;;;;6.12;90.06;101922.97;5111168;57;1136990;-75
2021/10/23 20:53:17;;;;;;;26.83;6.87;;;;;;;6.09;89.75;101920.94;5286010;55;1139249;-75
2021/10/23 20:58:24;;;;;;;17.40;5.40;;;;;;;6.03;89.62;101930.34;5288096;55;1139005;-75
2021/10/23 21:03:29;;;;;;;26.43;6.73;;;;;;;5.92;89.62;101939.47;5278614;55;1134886;-75
2021/10/23 21:08:35;;;;;;;18.03;5.40;;;;;;;5.87;89.78;101954.48;5170624;56;1136943;-74
2021/10/23 21:13:41;;;;;;;16.50;7.50;;;;;;;5.84;89.67;101957.22;4986260;58;1136967;-75
2021/10/23 21:18:47;;;;;;;14.07;5.53;;;;;;;5.74;89.81;101965.02;5049529;57;1134813;-75
2021/10/23 21:23:53;;;;;;;18.35;6.90;;;;;;;5.66;89.98;101963.09;5071237;57;1136828;-76
2021/10/23 21:28:59;;;;;;;15.07;5.23;;;;;;;5.62;90.07;101972.00;4952658;58;1136941;-75
2021/10/23 21:34:06;;;;;;;17.93;6.73;;;;;;;5.54;90.49;101986.68;5034770;57;1136891;-74
2021/10/23 21:39:12;;;;;;;22.03;6.67;;;;;;;5.52;90.45;101979.31;5055225;57;1137161;-74
2021/10/23 21:44:18;;;;;;;18.23;4.87;;;;;;;5.53;90.63;101987.59;5042774;57;1134746;-74
2021/10/23 21:49:23;;;;;;;19.57;4.20;;;;;;;5.52;90.53;101977.14;5155592;57;1136935;-74
2021/10/23 21:54:29;;;;;;;23.77;5.63;;;;;;;5.51;90.49;101986.77;5159158;57;1136888;-76
2021/10/23 21:59:35;;;;;;;18.93;4.80;;;;;;;5.49;90.63;101984.69;5097628;57;1134903;-74
2021/10/23 22:04:42;;;;;;;17.90;5.30;;;;;;;5.50;90.62;101986.86;5067344;57;1136956;-74
2021/10/23 22:09:51;;;;;;;20.40;5.57;;;;;;;5.50;90.48;101989.00;5066892;57;1136963;-76
2021/10/23 22:14:55;;;;;;;20.97;5.47;;;;;;;5.51;90.63;102005.14;5260380;55;1134857;-75
2021/10/23 22:20:01;;;;;;;14.93;4.33;;;;;;;5.50;90.50;102007.36;5222470;55;1134869;-74
2021/10/23 22:25:08;;;;;;;16.80;5.17;;;;;;;5.52;90.35;102006.00;5216152;55;1136978;-75
2021/10/23 22:30:14;;;;;;;17.10;5.33;;;;;;;5.57;90.65;102010.66;5156334;56;1136927;-76
2021/10/23 22:35:20;;;;;;;15.30;4.23;;;;;;;5.59;90.45;102021.97;5154391;57;1132807;-75
2021/10/23 22:40:26;;;;;;;18.63;4.57;;;;;;;5.51;90.05;102023.97;5209991;56;1132896;-75
2021/10/23 22:45:32;;;;;;;15.50;4.90;;;;;;;5.45;89.83;102018.48;5247838;55;1139037;-74
2021/10/23 22:50:38;;;;;;;10.53;4.23;;;;;;;5.44;89.84;102031.65;5248826;55;1138986;-76
2021/10/23 22:55:44;;;;;;;19.05;6.92;;;;;;;5.48;90.27;102028.03;5227487;55;1139247;-75
2021/10/23 23:00:49;;;;;;;24.07;6.93;;;;;;;5.56;90.42;102031.25;5058313;57;1136967;-75
2021/10/23 23:05:57;;;;;;;20.67;7.83;;;;;;;5.56;89.92;102043.05;5209687;56;1136931;-76
2021/10/23 23:11:02;;;;;;;29.70;7.03;;;;;;;5.52;89.83;102044.91;5227855;56;1137022;-75
2021/10/23 23:16:12;;;;;;;20.40;5.80;;;;;;;5.52;89.65;102046.67;5213023;56;1139063;-76
2021/10/23 23:21:18;;;;;;;19.00;6.47;;;;;;;5.52;89.41;102057.17;5294446;56;1139172;-76
2021/10/23 23:26:24;;;;;;;29.20;9.70;;;;;;;5.51;89.43;102056.31;5294594;56;1139287;-75
2021/10/23 23:31:29;;;;;;;31.83;12.23;;;;;;;5.49;89.39;102062.55;5294623;56;1137127;-75
2021/10/23 23:36:35;;;;;;;51.27;14.67;;;;;;;5.44;89.39;102073.63;5291169;55;1139146;-75
2021/10/23 23:41:41;;;;;;;38.63;11.60;;;;;;;5.35;89.14;102081.31;5282904;55;1139181;-75
2021/10/23 23:46:47;;;;;;;42.20;13.13;;;;;;;5.33;89.14;102092.34;5282765;56;1139152;-76